sensor_id;sensor_type;location;lat;lon;timestamp;P1;durP1;ratioP1;P2;durP2;ratioP2
51020;SDS011;38907;45.562;8.856;2023-12-07T00:01:23;91.97;;;63.25;;
51020;SDS011;38907;45.562;8.856;2023-12-07T00:06:25;82.30;;;57.70;;
51020;SDS011;38907;45.562;8.856;2023-12-07T00:11:28;94.20;;;58.80;;
51020;SDS011;38907;45.562;8.856;2023-12-07T00:16:30;86.70;;;57.45;;
51020;SDS011;38907;45.562;8.856;2023-12-07T00:21:32;86.05;;;55.97;;
51020;SDS011;38907;45.562;8.856;2023-12-07T00:26:36;85.13;;;56.67;;
51020;SDS011;38907;45.562;8.856;2023-12-07T00:31:38;75.50;;;54.10;;
51020;SDS011;38907;45.562;8.856;2023-12-07T00:36:40;74.65;;;52.25;;
51020;SDS011;38907;45.562;8.856;2023-12-07T00:41:43;83.30;;;53.70;;
51020;SDS011;38907;45.562;8.856;2023-12-07T00:46:46;76.53;;;53.85;;
51020;SDS011;38907;45.562;8.856;2023-12-07T00:51:49;71.75;;;52.67;;
51020;SDS011;38907;45.562;8.856;2023-12-07T00:56:52;76.80;;;56.20;;
51020;SDS011;38907;45.562;8.856;2023-12-07T01:01:54;78.63;;;52.20;;
51020;SDS011;38907;45.562;8.856;2023-12-07T01:06:56;76.55;;;53.80;;
51020;SDS011;38907;45.562;8.856;2023-12-07T01:11:59;78.53;;;55.50;;
51020;SDS011;38907;45.562;8.856;2023-12-07T01:17:01;74.47;;;50.20;;
51020;SDS011;38907;45.562;8.856;2023-12-07T01:22:03;69.47;;;48.90;;
51020;SDS011;38907;45.562;8.856;2023-12-07T01:27:06;66.90;;;47.47;;
51020;SDS011;38907;45.562;8.856;2023-12-07T01:32:08;64.80;;;46.08;;
51020;SDS011;38907;45.562;8.856;2023-12-07T01:37:10;65.63;;;47.40;;
51020;SDS011;38907;45.562;8.856;2023-12-07T01:42:13;62.58;;;43.78;;
51020;SDS011;38907;45.562;8.856;2023-12-07T01:47:15;66.85;;;47.50;;
51020;SDS011;38907;45.562;8.856;2023-12-07T01:52:16;60.28;;;42.97;;
51020;SDS011;38907;45.562;8.856;2023-12-07T01:57:21;62.30;;;41.40;;
51020;SDS011;38907;45.562;8.856;2023-12-07T02:07:25;48.22;;;34.47;;
51020;SDS011;38907;45.562;8.856;2023-12-07T02:12:29;49.47;;;33.80;;
51020;SDS011;38907;45.562;8.856;2023-12-07T02:17:33;47.45;;;33.03;;
51020;SDS011;38907;45.562;8.856;2023-12-07T02:22:37;44.30;;;30.80;;
51020;SDS011;38907;45.562;8.856;2023-12-07T02:27:42;42.10;;;30.92;;
51020;SDS011;38907;45.562;8.856;2023-12-07T02:32:45;42.10;;;28.45;;
51020;SDS011;38907;45.562;8.856;2023-12-07T02:37:48;43.30;;;29.17;;
51020;SDS011;38907;45.562;8.856;2023-12-07T02:42:52;41.55;;;29.70;;
51020;SDS011;38907;45.562;8.856;2023-12-07T02:52:58;44.50;;;29.25;;
51020;SDS011;38907;45.562;8.856;2023-12-07T02:58:01;40.75;;;28.88;;
51020;SDS011;38907;45.562;8.856;2023-12-07T03:03:02;39.90;;;26.88;;
51020;SDS011;38907;45.562;8.856;2023-12-07T03:08:04;37.38;;;25.42;;
51020;SDS011;38907;45.562;8.856;2023-12-07T03:13:07;35.38;;;25.45;;
51020;SDS011;38907;45.562;8.856;2023-12-07T03:18:09;33.28;;;25.42;;
51020;SDS011;38907;45.562;8.856;2023-12-07T03:23:11;41.40;;;29.45;;
51020;SDS011;38907;45.562;8.856;2023-12-07T03:28:14;38.00;;;25.42;;
51020;SDS011;38907;45.562;8.856;2023-12-07T03:33:16;35.35;;;24.63;;
51020;SDS011;38907;45.562;8.856;2023-12-07T03:38:18;36.33;;;23.50;;
51020;SDS011;38907;45.562;8.856;2023-12-07T03:48:24;29.50;;;22.63;;
51020;SDS011;38907;45.562;8.856;2023-12-07T03:53:26;30.15;;;22.27;;
51020;SDS011;38907;45.562;8.856;2023-12-07T03:58:28;29.42;;;21.98;;
51020;SDS011;38907;45.562;8.856;2023-12-07T04:03:31;32.38;;;22.52;;
51020;SDS011;38907;45.562;8.856;2023-12-07T04:08:33;27.88;;;20.05;;
51020;SDS011;38907;45.562;8.856;2023-12-07T04:13:35;33.95;;;23.15;;
51020;SDS011;38907;45.562;8.856;2023-12-07T04:18:38;38.15;;;25.92;;
51020;SDS011;38907;45.562;8.856;2023-12-07T04:23:40;33.15;;;23.60;;
51020;SDS011;38907;45.562;8.856;2023-12-07T04:28:42;38.20;;;29.23;;
51020;SDS011;38907;45.562;8.856;2023-12-07T04:33:45;32.70;;;22.15;;
51020;SDS011;38907;45.562;8.856;2023-12-07T04:38:47;29.90;;;22.25;;
51020;SDS011;38907;45.562;8.856;2023-12-07T04:43:48;30.52;;;22.52;;
51020;SDS011;38907;45.562;8.856;2023-12-07T04:48:52;27.48;;;21.67;;
51020;SDS011;38907;45.562;8.856;2023-12-07T04:53:53;30.35;;;21.73;;
51020;SDS011;38907;45.562;8.856;2023-12-07T04:58:55;29.80;;;21.60;;
51020;SDS011;38907;45.562;8.856;2023-12-07T05:03:58;30.00;;;21.88;;
51020;SDS011;38907;45.562;8.856;2023-12-07T05:09:00;33.50;;;22.88;;
51020;SDS011;38907;45.562;8.856;2023-12-07T05:14:02;31.90;;;22.92;;
51020;SDS011;38907;45.562;8.856;2023-12-07T05:19:05;31.73;;;24.00;;
51020;SDS011;38907;45.562;8.856;2023-12-07T05:24:07;34.92;;;23.63;;
51020;SDS011;38907;45.562;8.856;2023-12-07T05:29:09;27.73;;;21.75;;
51020;SDS011;38907;45.562;8.856;2023-12-07T05:34:13;33.60;;;24.65;;
51020;SDS011;38907;45.562;8.856;2023-12-07T05:39:15;28.00;;;20.35;;
51020;SDS011;38907;45.562;8.856;2023-12-07T05:44:18;25.48;;;18.63;;
51020;SDS011;38907;45.562;8.856;2023-12-07T05:49:23;29.83;;;23.98;;
51020;SDS011;38907;45.562;8.856;2023-12-07T05:54:25;18.73;;;15.07;;
51020;SDS011;38907;45.562;8.856;2023-12-07T05:59:27;23.17;;;17.05;;
51020;SDS011;38907;45.562;8.856;2023-12-07T06:04:30;19.17;;;16.00;;
51020;SDS011;38907;45.562;8.856;2023-12-07T06:09:32;33.83;;;22.13;;
51020;SDS011;38907;45.562;8.856;2023-12-07T06:14:34;28.35;;;19.67;;
51020;SDS011;38907;45.562;8.856;2023-12-07T06:19:37;31.90;;;25.40;;
51020;SDS011;38907;45.562;8.856;2023-12-07T06:24:39;37.70;;;24.40;;
51020;SDS011;38907;45.562;8.856;2023-12-07T06:29:40;34.03;;;23.77;;
51020;SDS011;38907;45.562;8.856;2023-12-07T06:34:43;22.08;;;16.63;;
51020;SDS011;38907;45.562;8.856;2023-12-07T06:39:45;14.48;;;11.18;;
51020;SDS011;38907;45.562;8.856;2023-12-07T06:44:48;16.90;;;11.97;;
51020;SDS011;38907;45.562;8.856;2023-12-07T06:49:51;24.52;;;15.95;;
51020;SDS011;38907;45.562;8.856;2023-12-07T06:54:53;23.40;;;15.70;;
51020;SDS011;38907;45.562;8.856;2023-12-07T06:59:55;20.55;;;14.25;;
51020;SDS011;38907;45.562;8.856;2023-12-07T07:04:58;16.70;;;11.35;;
51020;SDS011;38907;45.562;8.856;2023-12-07T07:10:00;32.17;;;16.20;;
51020;SDS011;38907;45.562;8.856;2023-12-07T07:15:02;22.27;;;12.82;;
51020;SDS011;38907;45.562;8.856;2023-12-07T07:20:07;32.72;;;22.55;;
51020;SDS011;38907;45.562;8.856;2023-12-07T07:25:09;30.33;;;22.00;;
51020;SDS011;38907;45.562;8.856;2023-12-07T07:30:11;33.58;;;23.63;;
51020;SDS011;38907;45.562;8.856;2023-12-07T07:35:15;30.83;;;19.98;;
51020;SDS011;38907;45.562;8.856;2023-12-07T07:40:17;31.17;;;19.38;;
51020;SDS011;38907;45.562;8.856;2023-12-07T07:45:19;41.35;;;23.95;;
51020;SDS011;38907;45.562;8.856;2023-12-07T07:50:22;59.05;;;22.50;;
51020;SDS011;38907;45.562;8.856;2023-12-07T07:55:24;30.17;;;21.05;;
51020;SDS011;38907;45.562;8.856;2023-12-07T08:00:25;32.17;;;20.50;;
51020;SDS011;38907;45.562;8.856;2023-12-07T08:05:29;53.42;;;29.63;;
51020;SDS011;38907;45.562;8.856;2023-12-07T08:10:31;35.80;;;22.50;;
51020;SDS011;38907;45.562;8.856;2023-12-07T08:15:33;29.48;;;20.65;;
51020;SDS011;38907;45.562;8.856;2023-12-07T08:20:36;28.70;;;19.40;;
51020;SDS011;38907;45.562;8.856;2023-12-07T08:25:38;21.92;;;16.27;;
51020;SDS011;38907;45.562;8.856;2023-12-07T08:30:40;19.55;;;13.73;;
51020;SDS011;38907;45.562;8.856;2023-12-07T08:35:43;21.65;;;14.10;;
51020;SDS011;38907;45.562;8.856;2023-12-07T08:40:45;26.33;;;17.30;;
51020;SDS011;38907;45.562;8.856;2023-12-07T08:45:46;27.17;;;17.23;;
51020;SDS011;38907;45.562;8.856;2023-12-07T08:50:50;20.85;;;15.68;;
51020;SDS011;38907;45.562;8.856;2023-12-07T08:55:51;23.15;;;14.10;;
51020;SDS011;38907;45.562;8.856;2023-12-07T09:00:54;22.88;;;13.48;;
51020;SDS011;38907;45.562;8.856;2023-12-07T09:05:57;29.52;;;14.25;;
51020;SDS011;38907;45.562;8.856;2023-12-07T09:16:01;14.27;;;8.57;;
51020;SDS011;38907;45.562;8.856;2023-12-07T09:21:05;12.63;;;7.95;;
51020;SDS011;38907;45.562;8.856;2023-12-07T09:26:07;13.00;;;8.52;;
51020;SDS011;38907;45.562;8.856;2023-12-07T09:31:10;11.43;;;7.93;;
51020;SDS011;38907;45.562;8.856;2023-12-07T09:36:17;13.38;;;7.55;;
51020;SDS011;38907;45.562;8.856;2023-12-07T09:41:20;10.00;;;7.22;;
51020;SDS011;38907;45.562;8.856;2023-12-07T09:46:24;12.23;;;7.68;;
51020;SDS011;38907;45.562;8.856;2023-12-07T09:51:28;12.45;;;7.22;;
51020;SDS011;38907;45.562;8.856;2023-12-07T09:56:33;11.10;;;8.13;;
51020;SDS011;38907;45.562;8.856;2023-12-07T10:01:34;14.95;;;8.45;;
51020;SDS011;38907;45.562;8.856;2023-12-07T10:06:43;14.15;;;9.30;;
51020;SDS011;38907;45.562;8.856;2023-12-07T10:11:45;14.75;;;9.32;;
51020;SDS011;38907;45.562;8.856;2023-12-07T10:16:52;14.52;;;10.88;;
51020;SDS011;38907;45.562;8.856;2023-12-07T10:21:57;16.98;;;11.63;;
51020;SDS011;38907;45.562;8.856;2023-12-07T10:26:58;17.20;;;10.82;;
51020;SDS011;38907;45.562;8.856;2023-12-07T10:32:00;18.90;;;11.93;;
51020;SDS011;38907;45.562;8.856;2023-12-07T10:37:06;16.20;;;11.20;;
51020;SDS011;38907;45.562;8.856;2023-12-07T10:42:09;19.02;;;12.93;;
51020;SDS011;38907;45.562;8.856;2023-12-07T10:47:12;21.30;;;13.65;;
51020;SDS011;38907;45.562;8.856;2023-12-07T10:52:15;20.70;;;13.98;;
51020;SDS011;38907;45.562;8.856;2023-12-07T10:57:20;17.45;;;13.45;;
51020;SDS011;38907;45.562;8.856;2023-12-07T11:02:23;23.23;;;13.57;;
51020;SDS011;38907;45.562;8.856;2023-12-07T11:12:35;21.88;;;15.75;;
51020;SDS011;38907;45.562;8.856;2023-12-07T11:17:49;25.90;;;15.23;;
51020;SDS011;38907;45.562;8.856;2023-12-07T11:22:54;23.30;;;13.80;;
51020;SDS011;38907;45.562;8.856;2023-12-07T11:28:00;18.65;;;13.65;;
51020;SDS011;38907;45.562;8.856;2023-12-07T11:33:03;18.15;;;13.32;;
51020;SDS011;38907;45.562;8.856;2023-12-07T11:38:07;17.08;;;14.23;;
51020;SDS011;38907;45.562;8.856;2023-12-07T11:43:16;18.42;;;13.95;;
51020;SDS011;38907;45.562;8.856;2023-12-07T11:48:18;20.02;;;12.90;;
51020;SDS011;38907;45.562;8.856;2023-12-07T11:53:24;13.88;;;12.10;;
51020;SDS011;38907;45.562;8.856;2023-12-07T11:58:27;16.63;;;11.88;;
51020;SDS011;38907;45.562;8.856;2023-12-07T12:03:30;19.60;;;12.80;;
51020;SDS011;38907;45.562;8.856;2023-12-07T12:13:36;18.48;;;13.30;;
51020;SDS011;38907;45.562;8.856;2023-12-07T12:18:39;17.70;;;13.85;;
51020;SDS011;38907;45.562;8.856;2023-12-07T12:23:42;19.13;;;13.05;;
51020;SDS011;38907;45.562;8.856;2023-12-07T12:28:44;15.88;;;12.98;;
51020;SDS011;38907;45.562;8.856;2023-12-07T12:33:47;18.88;;;13.88;;
51020;SDS011;38907;45.562;8.856;2023-12-07T12:38:51;15.02;;;12.13;;
51020;SDS011;38907;45.562;8.856;2023-12-07T12:43:52;14.25;;;11.57;;
51020;SDS011;38907;45.562;8.856;2023-12-07T12:48:55;17.40;;;11.10;;
51020;SDS011;38907;45.562;8.856;2023-12-07T12:53:59;14.90;;;12.48;;
51020;SDS011;38907;45.562;8.856;2023-12-07T12:59:01;17.58;;;12.07;;
51020;SDS011;38907;45.562;8.856;2023-12-07T13:04:03;16.77;;;12.00;;
51020;SDS011;38907;45.562;8.856;2023-12-07T13:09:07;19.38;;;12.77;;
51020;SDS011;38907;45.562;8.856;2023-12-07T13:14:08;15.27;;;11.90;;
51020;SDS011;38907;45.562;8.856;2023-12-07T13:19:10;15.68;;;11.65;;
51020;SDS011;38907;45.562;8.856;2023-12-07T13:24:13;17.55;;;11.80;;
51020;SDS011;38907;45.562;8.856;2023-12-07T13:29:15;16.77;;;11.23;;
51020;SDS011;38907;45.562;8.856;2023-12-07T13:34:17;19.50;;;16.45;;
51020;SDS011;38907;45.562;8.856;2023-12-07T13:39:20;23.05;;;17.45;;
51020;SDS011;38907;45.562;8.856;2023-12-07T13:44:22;26.30;;;18.60;;
51020;SDS011;38907;45.562;8.856;2023-12-07T13:49:24;22.00;;;17.40;;
51020;SDS011;38907;45.562;8.856;2023-12-07T13:54:28;20.98;;;15.55;;
51020;SDS011;38907;45.562;8.856;2023-12-07T13:59:33;21.10;;;16.55;;
51020;SDS011;38907;45.562;8.856;2023-12-07T14:04:37;15.93;;;13.65;;
51020;SDS011;38907;45.562;8.856;2023-12-07T14:09:41;17.45;;;15.65;;
51020;SDS011;38907;45.562;8.856;2023-12-07T14:14:45;19.77;;;15.68;;
51020;SDS011;38907;45.562;8.856;2023-12-07T14:19:48;18.52;;;15.63;;
51020;SDS011;38907;45.562;8.856;2023-12-07T14:24:51;25.27;;;17.27;;
51020;SDS011;38907;45.562;8.856;2023-12-07T14:29:53;22.02;;;17.83;;
51020;SDS011;38907;45.562;8.856;2023-12-07T14:34:55;26.23;;;18.95;;
51020;SDS011;38907;45.562;8.856;2023-12-07T14:39:58;25.63;;;21.58;;
51020;SDS011;38907;45.562;8.856;2023-12-07T14:45:00;29.77;;;23.63;;
51020;SDS011;38907;45.562;8.856;2023-12-07T14:50:02;28.15;;;22.23;;
51020;SDS011;38907;45.562;8.856;2023-12-07T14:55:06;27.42;;;21.85;;
51020;SDS011;38907;45.562;8.856;2023-12-07T15:00:08;32.30;;;23.67;;
51020;SDS011;38907;45.562;8.856;2023-12-07T15:05:11;29.63;;;24.50;;
51020;SDS011;38907;45.562;8.856;2023-12-07T15:10:14;32.67;;;26.92;;
51020;SDS011;38907;45.562;8.856;2023-12-07T15:15:16;35.08;;;27.77;;
51020;SDS011;38907;45.562;8.856;2023-12-07T15:20:17;37.85;;;29.13;;
51020;SDS011;38907;45.562;8.856;2023-12-07T15:25:20;43.63;;;29.50;;
51020;SDS011;38907;45.562;8.856;2023-12-07T15:30:23;42.35;;;28.83;;
51020;SDS011;38907;45.562;8.856;2023-12-07T15:35:26;40.85;;;28.70;;
51020;SDS011;38907;45.562;8.856;2023-12-07T15:40:30;39.22;;;28.10;;
51020;SDS011;38907;45.562;8.856;2023-12-07T15:45:31;38.58;;;29.27;;
51020;SDS011;38907;45.562;8.856;2023-12-07T15:50:33;34.13;;;28.27;;
51020;SDS011;38907;45.562;8.856;2023-12-07T15:55:37;40.10;;;30.02;;
51020;SDS011;38907;45.562;8.856;2023-12-07T16:00:38;41.40;;;29.42;;
51020;SDS011;38907;45.562;8.856;2023-12-07T16:05:40;43.05;;;30.95;;
51020;SDS011;38907;45.562;8.856;2023-12-07T16:10:43;46.72;;;29.77;;
51020;SDS011;38907;45.562;8.856;2023-12-07T16:15:45;44.78;;;31.50;;
51020;SDS011;38907;45.562;8.856;2023-12-07T16:20:47;40.67;;;31.70;;
51020;SDS011;38907;45.562;8.856;2023-12-07T16:25:50;45.35;;;31.40;;
51020;SDS011;38907;45.562;8.856;2023-12-07T16:30:52;52.35;;;33.20;;
51020;SDS011;38907;45.562;8.856;2023-12-07T16:35:55;42.80;;;29.52;;
51020;SDS011;38907;45.562;8.856;2023-12-07T16:40:58;49.70;;;34.63;;
51020;SDS011;38907;45.562;8.856;2023-12-07T16:45:59;38.80;;;31.73;;
51020;SDS011;38907;45.562;8.856;2023-12-07T16:51:04;44.03;;;33.83;;
51020;SDS011;38907;45.562;8.856;2023-12-07T16:56:08;52.10;;;35.75;;
51020;SDS011;38907;45.562;8.856;2023-12-07T17:01:10;45.45;;;33.78;;
51020;SDS011;38907;45.562;8.856;2023-12-07T17:06:11;40.50;;;31.83;;
51020;SDS011;38907;45.562;8.856;2023-12-07T17:11:15;40.03;;;30.42;;
51020;SDS011;38907;45.562;8.856;2023-12-07T17:16:17;37.90;;;29.23;;
51020;SDS011;38907;45.562;8.856;2023-12-07T17:21:19;38.78;;;30.98;;
51020;SDS011;38907;45.562;8.856;2023-12-07T17:26:22;66.10;;;46.63;;
51020;SDS011;38907;45.562;8.856;2023-12-07T17:31:24;98.20;;;67.18;;
51020;SDS011;38907;45.562;8.856;2023-12-07T17:36:26;130.70;;;90.40;;
51020;SDS011;38907;45.562;8.856;2023-12-07T17:41:29;114.57;;;81.63;;
51020;SDS011;38907;45.562;8.856;2023-12-07T17:46:31;107.40;;;76.60;;
51020;SDS011;38907;45.562;8.856;2023-12-07T17:51:33;98.32;;;67.95;;
51020;SDS011;38907;45.562;8.856;2023-12-07T17:56:39;89.13;;;61.45;;
51020;SDS011;38907;45.562;8.856;2023-12-07T18:01:42;77.93;;;57.20;;
51020;SDS011;38907;45.562;8.856;2023-12-07T18:06:44;71.35;;;53.03;;
51020;SDS011;38907;45.562;8.856;2023-12-07T18:11:47;78.03;;;58.83;;
51020;SDS011;38907;45.562;8.856;2023-12-07T18:16:48;114.28;;;74.82;;
51020;SDS011;38907;45.562;8.856;2023-12-07T18:21:50;87.47;;;60.47;;
51020;SDS011;38907;45.562;8.856;2023-12-07T18:26:54;95.57;;;66.53;;
51020;SDS011;38907;45.562;8.856;2023-12-07T18:31:56;88.05;;;62.05;;
51020;SDS011;38907;45.562;8.856;2023-12-07T18:36:58;76.45;;;53.17;;
51020;SDS011;38907;45.562;8.856;2023-12-07T18:42:01;76.18;;;52.92;;
51020;SDS011;38907;45.562;8.856;2023-12-07T18:47:03;76.22;;;54.63;;
51020;SDS011;38907;45.562;8.856;2023-12-07T18:52:06;93.50;;;69.15;;
51020;SDS011;38907;45.562;8.856;2023-12-07T18:57:09;114.97;;;82.57;;
51020;SDS011;38907;45.562;8.856;2023-12-07T19:02:11;112.68;;;81.15;;
51020;SDS011;38907;45.562;8.856;2023-12-07T19:07:13;101.25;;;77.95;;
51020;SDS011;38907;45.562;8.856;2023-12-07T19:12:16;84.55;;;64.20;;
51020;SDS011;38907;45.562;8.856;2023-12-07T19:17:18;86.55;;;61.60;;
51020;SDS011;38907;45.562;8.856;2023-12-07T19:22:20;84.10;;;59.45;;
51020;SDS011;38907;45.562;8.856;2023-12-07T19:27:23;64.47;;;48.05;;
51020;SDS011;38907;45.562;8.856;2023-12-07T19:32:25;63.03;;;45.95;;
51020;SDS011;38907;45.562;8.856;2023-12-07T19:37:27;61.30;;;44.10;;
51020;SDS011;38907;45.562;8.856;2023-12-07T19:42:30;63.05;;;41.83;;
51020;SDS011;38907;45.562;8.856;2023-12-07T19:47:32;52.47;;;39.33;;
51020;SDS011;38907;45.562;8.856;2023-12-07T19:52:34;55.67;;;40.20;;
51020;SDS011;38907;45.562;8.856;2023-12-07T19:57:38;64.55;;;45.88;;
51020;SDS011;38907;45.562;8.856;2023-12-07T20:02:42;55.67;;;42.85;;
51020;SDS011;38907;45.562;8.856;2023-12-07T20:07:44;57.63;;;42.58;;
51020;SDS011;38907;45.562;8.856;2023-12-07T20:12:48;62.40;;;41.80;;
51020;SDS011;38907;45.562;8.856;2023-12-07T20:17:50;71.60;;;53.83;;
51020;SDS011;38907;45.562;8.856;2023-12-07T20:22:52;84.65;;;54.55;;
51020;SDS011;38907;45.562;8.856;2023-12-07T20:27:56;78.90;;;58.03;;
51020;SDS011;38907;45.562;8.856;2023-12-07T20:32:57;59.22;;;43.25;;
51020;SDS011;38907;45.562;8.856;2023-12-07T20:37:59;55.45;;;37.88;;
51020;SDS011;38907;45.562;8.856;2023-12-07T20:43:02;53.08;;;37.38;;
51020;SDS011;38907;45.562;8.856;2023-12-07T20:48:04;53.70;;;36.85;;
51020;SDS011;38907;45.562;8.856;2023-12-07T20:53:06;49.10;;;34.92;;
51020;SDS011;38907;45.562;8.856;2023-12-07T20:58:09;46.65;;;33.53;;
51020;SDS011;38907;45.562;8.856;2023-12-07T21:03:11;48.30;;;34.83;;
51020;SDS011;38907;45.562;8.856;2023-12-07T21:08:13;43.65;;;31.92;;
51020;SDS011;38907;45.562;8.856;2023-12-07T21:13:16;50.00;;;35.95;;
51020;SDS011;38907;45.562;8.856;2023-12-07T21:18:17;51.10;;;34.78;;
51020;SDS011;38907;45.562;8.856;2023-12-07T21:23:19;47.78;;;32.45;;
51020;SDS011;38907;45.562;8.856;2023-12-07T21:28:22;40.95;;;31.23;;
51020;SDS011;38907;45.562;8.856;2023-12-07T21:33:24;45.97;;;32.55;;
51020;SDS011;38907;45.562;8.856;2023-12-07T21:38:26;43.53;;;29.65;;
51020;SDS011;38907;45.562;8.856;2023-12-07T21:43:29;42.08;;;31.25;;
51020;SDS011;38907;45.562;8.856;2023-12-07T21:48:31;41.67;;;28.92;;
51020;SDS011;38907;45.562;8.856;2023-12-07T21:53:33;45.15;;;30.20;;
51020;SDS011;38907;45.562;8.856;2023-12-07T21:58:36;44.22;;;30.23;;
51020;SDS011;38907;45.562;8.856;2023-12-07T22:03:37;43.50;;;33.67;;
51020;SDS011;38907;45.562;8.856;2023-12-07T22:08:39;44.20;;;31.60;;
51020;SDS011;38907;45.562;8.856;2023-12-07T22:13:42;43.67;;;32.20;;
51020;SDS011;38907;45.562;8.856;2023-12-07T22:18:44;46.28;;;35.88;;
51020;SDS011;38907;45.562;8.856;2023-12-07T22:23:46;44.60;;;32.17;;
51020;SDS011;38907;45.562;8.856;2023-12-07T22:28:49;38.45;;;28.60;;
51020;SDS011;38907;45.562;8.856;2023-12-07T22:33:51;42.40;;;30.75;;
51020;SDS011;38907;45.562;8.856;2023-12-07T22:38:53;46.50;;;30.85;;
51020;SDS011;38907;45.562;8.856;2023-12-07T22:43:56;46.45;;;32.08;;
51020;SDS011;38907;45.562;8.856;2023-12-07T22:48:57;42.22;;;30.92;;
51020;SDS011;38907;45.562;8.856;2023-12-07T22:53:59;48.85;;;33.70;;
51020;SDS011;38907;45.562;8.856;2023-12-07T22:59:02;49.70;;;35.42;;
51020;SDS011;38907;45.562;8.856;2023-12-07T23:04:05;44.88;;;31.45;;
51020;SDS011;38907;45.562;8.856;2023-12-07T23:09:07;42.07;;;29.60;;
51020;SDS011;38907;45.562;8.856;2023-12-07T23:14:11;43.00;;;29.50;;
51020;SDS011;38907;45.562;8.856;2023-12-07T23:19:13;45.70;;;30.73;;
51020;SDS011;38907;45.562;8.856;2023-12-07T23:24:14;40.17;;;29.05;;
51020;SDS011;38907;45.562;8.856;2023-12-07T23:29:18;42.42;;;28.55;;
51020;SDS011;38907;45.562;8.856;2023-12-07T23:34:19;44.13;;;28.95;;
51020;SDS011;38907;45.562;8.856;2023-12-07T23:39:22;35.20;;;26.60;;
51020;SDS011;38907;45.562;8.856;2023-12-07T23:44:25;47.67;;;27.80;;
51020;SDS011;38907;45.562;8.856;2023-12-07T23:49:26;38.35;;;26.83;;
51020;SDS011;38907;45.562;8.856;2023-12-07T23:54:28;41.75;;;26.40;;
51020;SDS011;38907;45.562;8.856;2023-12-07T23:59:31;37.60;;;26.15;;
